Terminal Aerodrome Forecast
Issued by NWS Sioux Falls, SD

Home | Current Version | Previous Version | Graphics & Text | Print | Product List | Glossary On
Versions: 1 2 3 4 5 6 7 8 9 10 11 12 13 14 15 16 17 18
000
FTUS43 KFSD 081408 AAA
TAFFSD
TAF AMD
KFSD 081408Z 0814/0912 33008KT P6SM OVC015
      TEMPO 0814/0817 P6SM BKN008
     FM081700 31012G20KT P6SM OVC012
     FM082300 30012G18KT P6SM SCT020
      TEMPO 0902/0906 BKN015
     FM091000 34012KT P6SM SCT020 BKN150=

USA.gov is the U.S. government's official web portal to all federal, state and local government web resources and services.